Airfield :
LOGIN :

Register | Disclaimer

   EN    FR    IT 

 










Legend :    VFR   Marginal VFR   IFR   Intensive IFR   Very Intensive IFR
Visi :
Ceiling :
>= 8 km
>= 3000ft
5 to 8 km
1000 to 3000 ft
1500m to 5 km
500 to 1000 ft
800 to 1500m
200 to 500 ft
< 800m
< 200 ft
Symbols :   Thunderstorms  Fog  Heavy snow  Heavy precipitations  Wind > 20 kt
SIGMETs :     Misc.  Thunderstorms  Icing  Turbulence  Mountain Waves  Volcanic Ashes






- Airport Elevation : 36 ft
- IATA code : LTQ


LFAT - Le Touquet

CURRENT METAR :
  • 090730Z AUTO 07009KT CAVOK 21/13 Q1028 NOSIG

EXPIRED METARs :
  • 090700Z AUTO 05006KT 020V090 CAVOK 20/14 Q1028 NOSIG
  • 090630Z AUTO 03006KT 360V060 CAVOK 18/14 Q1027 NOSIG
  • 090600Z AUTO 03004KT 360V070 CAVOK 18/14 Q1027 NOSIG
  • 090530Z AUTO 04006KT CAVOK 17/14 Q1027 NOSIG
  • 090500Z AUTO 06006KT CAVOK 17/14 Q1027

TAF TAF LFAT
Valid from the 09 at 06:00 until the 09 at 15:00 UTC


090500Z 0906/0915 03010KT CAVOK
ATIS : +33 3 21 06 62 84



MET'MAP, your aeronautical weather chart ! - Copyright ORBIFLY December 2007 - Disclaimer

ORBIFLY MET'MAP TEAM :

Programming & Development : Alexandra Zaïnal
Original concept : Baudouin d'Aumeries
Technical & hardware support : Manuel Goepfert
Assistance : Marc-Olivier Méhu




SOURCES & CREDITS :

   NOAA